createdAt,value
2022-09-04T00:01:00.546Z,12.69
2022-09-04T00:03:39.659Z,12.67
2022-09-04T00:06:16.891Z,12.67
2022-09-04T00:09:09.467Z,12.66
2022-09-04T00:11:58.164Z,12.69
2022-09-04T00:14:42.833Z,12.69
2022-09-04T00:17:33.182Z,12.71
2022-09-04T00:20:07.857Z,12.72
2022-09-04T00:22:55.416Z,12.72
2022-09-04T00:25:26.490Z,12.71
2022-09-04T00:28:24.684Z,12.70
2022-09-04T00:31:03.474Z,12.66
2022-09-04T00:33:53.356Z,12.62
2022-09-04T00:36:25.627Z,12.59
2022-09-04T00:39:03.691Z,12.56
2022-09-04T00:42:07.040Z,12.53
2022-09-04T00:45:03.482Z,12.53
2022-09-04T00:47:49.013Z,12.52
2022-09-04T00:50:47.151Z,12.51
2022-09-04T00:53:24.401Z,12.50
2022-09-04T00:56:32.483Z,12.52
2022-09-04T00:59:32.146Z,12.55
2022-09-04T01:02:25.361Z,12.57
2022-09-04T01:05:19.561Z,12.56
2022-09-04T01:07:59.210Z,12.57
2022-09-04T01:10:45.994Z,12.55
2022-09-04T01:13:37.011Z,12.56
2022-09-04T01:16:20.083Z,12.56
2022-09-04T01:19:08.854Z,12.55
2022-09-04T01:22:17.754Z,12.56
2022-09-04T01:25:47.958Z,12.56
2022-09-04T01:28:28.200Z,12.57
2022-09-04T01:31:14.560Z,12.55
2022-09-04T01:34:06.548Z,12.58
2022-09-04T01:36:50.401Z,12.60
2022-09-04T01:39:23.743Z,12.61
2022-09-04T01:42:26.680Z,12.62
2022-09-04T01:44:54.837Z,12.67
2022-09-04T01:47:37.047Z,12.71
2022-09-04T01:50:29.049Z,12.74
2022-09-04T01:53:25.851Z,12.76
2022-09-04T01:56:13.426Z,12.76
2022-09-04T01:58:48.279Z,12.73
2022-09-04T02:01:43.257Z,12.71
2022-09-04T02:04:48.563Z,12.69
2022-09-04T02:07:38.421Z,12.64
2022-09-04T02:10:56.581Z,12.58
2022-09-04T02:14:06.673Z,12.57
2022-09-04T02:16:46.936Z,12.57
2022-09-04T02:19:28.371Z,12.59
2022-09-04T02:22:07.156Z,12.60
2022-09-04T02:24:58.464Z,12.59
2022-09-04T02:27:50.133Z,12.60
2022-09-04T02:30:20.563Z,12.60
2022-09-04T02:33:23.576Z,12.59
2022-09-04T02:36:07.466Z,12.57
2022-09-04T02:39:12.034Z,12.54
2022-09-04T02:42:04.091Z,12.50
2022-09-04T02:44:47.596Z,12.45
2022-09-04T02:47:47.384Z,12.39
2022-09-04T02:50:38.762Z,12.35
2022-09-04T02:53:31.977Z,12.29
2022-09-04T02:56:09.063Z,12.27
2022-09-04T02:58:58.900Z,12.27
2022-09-04T03:01:50.558Z,12.26
2022-09-04T03:04:25.058Z,12.21
2022-09-04T03:07:11.631Z,12.19
2022-09-04T03:09:54.563Z,12.15
2022-09-04T03:12:46.078Z,12.10
2022-09-04T03:15:21.795Z,12.06
2022-09-04T03:17:59.138Z,11.99
2022-09-04T03:20:32.178Z,11.93
2022-09-04T03:23:10.255Z,11.86
2022-09-04T03:26:26.527Z,11.84
2022-09-04T03:29:16.336Z,11.81
2022-09-04T03:32:15.512Z,11.78
2022-09-04T03:35:18.670Z,11.75
2022-09-04T03:38:11.237Z,11.73
2022-09-04T03:40:52.602Z,11.71
2022-09-04T03:43:39.043Z,11.67
2022-09-04T03:46:42.038Z,11.63
2022-09-04T03:49:41.299Z,11.59
2022-09-04T03:52:33.394Z,11.52
2022-09-04T03:55:37.483Z,11.47
2022-09-04T03:58:54.814Z,11.43
2022-09-04T04:01:28.783Z,11.45
2022-09-04T04:03:59.918Z,11.46
2022-09-04T04:06:41.886Z,11.47
2022-09-04T04:09:15.880Z,11.50
2022-09-04T04:12:05.773Z,11.52
2022-09-04T04:14:39.504Z,11.52
2022-09-04T04:17:22.827Z,11.52
2022-09-04T04:20:23.467Z,11.49
2022-09-04T04:23:07.991Z,11.46
2022-09-04T04:25:39.367Z,11.43
2022-09-04T04:28:20.321Z,11.38
2022-09-04T04:30:53.435Z,11.37
2022-09-04T04:33:49.033Z,11.38
2022-09-04T04:36:26.087Z,11.40
2022-09-04T04:39:14.720Z,11.44
2022-09-04T04:42:05.972Z,11.49
2022-09-04T04:45:11.878Z,11.55
2022-09-04T04:47:58.937Z,11.60
2022-09-04T04:50:46.240Z,11.63
2022-09-04T04:53:39.910Z,11.65
2022-09-04T04:56:31.771Z,11.68
2022-09-04T04:59:24.649Z,11.71
2022-09-04T05:01:58.036Z,11.70
2022-09-04T05:04:47.639Z,11.70
2022-09-04T05:07:37.220Z,11.72
2022-09-04T05:10:20.571Z,11.76
2022-09-04T05:13:00.415Z,11.82
2022-09-04T05:16:18.077Z,11.89
2022-09-04T05:18:59.800Z,11.98
2022-09-04T05:21:42.158Z,12.06
2022-09-04T05:24:36.350Z,12.13
2022-09-04T05:27:40.841Z,12.20
2022-09-04T05:30:12.688Z,12.28
2022-09-04T05:33:00.135Z,12.36
2022-09-04T05:36:06.661Z,12.44
2022-09-04T05:38:57.298Z,12.52
2022-09-04T05:41:44.132Z,12.59
2022-09-04T05:44:41.601Z,12.69
2022-09-04T05:47:39.266Z,12.80
2022-09-04T05:50:41.608Z,12.90
2022-09-04T05:53:09.783Z,13.03
2022-09-04T05:56:05.703Z,13.10
2022-09-04T05:59:02.728Z,13.18
2022-09-04T06:01:56.514Z,13.24
2022-09-04T06:04:42.782Z,13.29
2022-09-04T06:07:35.473Z,13.35
2022-09-04T06:10:41.359Z,13.42
2022-09-04T06:13:15.684Z,13.50
2022-09-04T06:16:02.983Z,13.55
2022-09-04T06:19:11.997Z,13.58
2022-09-04T06:21:57.703Z,13.64
2022-09-04T06:25:11.139Z,13.70
2022-09-04T06:28:00.464Z,13.76
2022-09-04T06:30:48.997Z,13.80
2022-09-04T06:33:29.917Z,13.86
2022-09-04T06:36:36.166Z,13.95
2022-09-04T06:39:20.036Z,14.04
2022-09-04T06:42:13.555Z,14.10
2022-09-04T06:45:12.177Z,14.15
2022-09-04T06:48:25.216Z,14.18
2022-09-04T06:51:43.143Z,14.25
2022-09-04T06:54:51.222Z,14.33
2022-09-04T06:57:25.589Z,14.40
2022-09-04T07:00:09.121Z,14.44
2022-09-04T07:02:47.336Z,14.50
2022-09-04T07:05:38.380Z,14.55
2022-09-04T07:08:35.571Z,14.63
2022-09-04T07:11:28.820Z,14.70
2022-09-04T07:14:16.637Z,14.78
2022-09-04T07:17:06.554Z,14.84
2022-09-04T07:20:18.830Z,14.94
2022-09-04T07:23:03.046Z,15.01
2022-09-04T07:25:44.488Z,15.07
2022-09-04T07:28:44.242Z,15.13
2022-09-04T07:31:27.235Z,15.19
2022-09-04T07:34:13.949Z,15.26
2022-09-04T07:36:56.131Z,15.33
2022-09-04T07:39:50.903Z,15.40
2022-09-04T07:42:47.829Z,15.47
2022-09-04T07:45:53.153Z,15.56
2022-09-04T07:48:41.133Z,15.65
2022-09-04T07:51:28.068Z,15.74
2022-09-04T07:54:25.163Z,15.81
2022-09-04T07:57:34.266Z,15.91
2022-09-04T08:00:23.086Z,16.00
2022-09-04T08:03:13.688Z,16.08
2022-09-04T08:05:54.722Z,16.18
2022-09-04T08:08:47.313Z,16.25
2022-09-04T08:11:29.839Z,16.34
2022-09-04T08:14:19.855Z,16.44
2022-09-04T08:17:06.769Z,16.55
2022-09-04T08:20:10.016Z,16.64
2022-09-04T08:23:07.624Z,16.75
2022-09-04T08:26:14.331Z,16.86
2022-09-04T08:29:05.389Z,16.93
2022-09-04T08:31:43.473Z,17.03
2022-09-04T08:34:40.137Z,17.12
2022-09-04T08:37:28.243Z,17.21
2022-09-04T08:40:33.060Z,17.29
2022-09-04T08:43:52.488Z,17.39
2022-09-04T08:47:02.046Z,17.51
2022-09-04T08:49:39.400Z,17.60
2022-09-04T08:52:35.162Z,17.68
2022-09-04T08:55:43.288Z,17.76
2022-09-04T08:58:47.053Z,17.85
2022-09-04T09:01:40.049Z,17.95
2022-09-04T09:04:39.045Z,18.03
2022-09-04T09:07:45.238Z,18.12
2022-09-04T09:10:40.124Z,18.20
2022-09-04T09:13:56.755Z,18.28
2022-09-04T09:16:32.667Z,18.37
2022-09-04T09:19:40.765Z,18.43
2022-09-04T09:22:18.454Z,18.53
2022-09-04T09:25:32.343Z,18.57
2022-09-04T09:28:15.828Z,18.66
2022-09-04T09:31:21.959Z,18.71
2022-09-04T09:33:53.501Z,18.78
2022-09-04T09:36:35.682Z,18.84
2022-09-04T09:39:12.976Z,18.90
2022-09-04T09:42:15.548Z,18.95
2022-09-04T09:45:30.859Z,19.04
2022-09-04T09:48:17.595Z,19.10
2022-09-04T09:50:55.140Z,19.15
2022-09-04T09:53:44.985Z,19.20
2022-09-04T09:57:08.752Z,19.26
2022-09-04T09:59:41.768Z,19.38
2022-09-04T10:02:38.510Z,19.44
2022-09-04T10:05:31.528Z,19.49
2022-09-04T10:08:36.018Z,19.54
2022-09-04T10:11:29.032Z,19.60
2022-09-04T10:14:20.242Z,19.68
2022-09-04T10:17:24.807Z,19.73
2022-09-04T10:20:31.192Z,19.75
2022-09-04T10:23:05.631Z,19.83
2022-09-04T10:25:45.892Z,19.90
2022-09-04T10:28:29.057Z,19.99
2022-09-04T10:31:31.736Z,20.07
2022-09-04T10:34:27.736Z,20.16
2022-09-04T10:37:07.347Z,20.19
2022-09-04T10:40:27.619Z,20.26
2022-09-04T10:43:42.657Z,20.33
2022-09-04T10:46:48.464Z,20.37
2022-09-04T10:49:19.365Z,20.43
2022-09-04T10:51:50.403Z,20.48
2022-09-04T10:54:26.159Z,20.51
2022-09-04T10:57:17.068Z,20.57
2022-09-04T11:00:11.917Z,20.63
2022-09-04T11:03:11.340Z,20.68
2022-09-04T11:05:47.054Z,20.73
2022-09-04T11:08:20.743Z,20.78
2022-09-04T11:11:18.176Z,20.82
2022-09-04T11:14:11.364Z,20.83
2022-09-04T11:16:50.599Z,20.88
2022-09-04T11:19:57.832Z,20.94
2022-09-04T11:23:18.734Z,21.02
2022-09-04T11:26:26.234Z,21.10
2022-09-04T11:29:24.682Z,21.17
2022-09-04T11:32:27.531Z,21.29
2022-09-04T11:35:14.061Z,21.41
2022-09-04T11:38:17.716Z,21.49
2022-09-04T11:41:10.880Z,21.62
2022-09-04T11:43:51.418Z,21.73
2022-09-04T11:46:41.794Z,21.78
2022-09-04T11:49:30.060Z,21.74
2022-09-04T11:52:14.714Z,21.79
2022-09-04T11:55:06.738Z,21.81
2022-09-04T11:57:49.457Z,21.80
2022-09-04T12:00:19.893Z,21.78
2022-09-04T12:03:19.088Z,21.86
2022-09-04T12:06:35.336Z,21.96
2022-09-04T12:09:55.614Z,22.08
2022-09-04T12:12:48.064Z,22.18
2022-09-04T12:15:56.472Z,22.26
2022-09-04T12:19:03.731Z,22.35
2022-09-04T12:22:01.666Z,22.31
2022-09-04T12:25:34.687Z,22.31
2022-09-04T12:28:40.099Z,22.33
2022-09-04T12:31:57.185Z,22.35
2022-09-04T12:35:04.304Z,22.45
2022-09-04T12:37:45.878Z,22.55
2022-09-04T12:40:30.811Z,22.65
2022-09-04T12:43:21.038Z,22.73
2022-09-04T12:46:24.970Z,22.75
2022-09-04T12:49:06.800Z,22.76
2022-09-04T12:52:19.350Z,22.66
2022-09-04T12:54:54.914Z,22.55
2022-09-04T12:57:30.657Z,22.56
2022-09-04T13:00:15.355Z,22.56
2022-09-04T13:03:00.406Z,22.60
2022-09-04T13:05:53.748Z,22.61
2022-09-04T13:08:34.231Z,22.63
2022-09-04T13:11:21.663Z,22.70
2022-09-04T13:14:36.351Z,22.63
2022-09-04T13:17:50.350Z,22.58
2022-09-04T13:20:22.934Z,22.48
2022-09-04T13:22:54.105Z,22.35
2022-09-04T13:26:00.441Z,22.20
2022-09-04T13:29:03.735Z,22.06
2022-09-04T13:32:02.916Z,22.05
2022-09-04T13:34:46.061Z,22.12
2022-09-04T13:37:39.338Z,22.16
2022-09-04T13:40:40.072Z,22.20
2022-09-04T13:43:43.550Z,22.23
2022-09-04T13:46:39.090Z,22.32
2022-09-04T13:49:21.108Z,22.37
2022-09-04T13:52:00.610Z,22.42
2022-09-04T13:54:42.229Z,22.44
2022-09-04T13:57:21.894Z,22.45
2022-09-04T13:59:50.760Z,22.39
2022-09-04T14:02:26.982Z,22.39
2022-09-04T14:05:09.594Z,22.42
2022-09-04T14:07:44.787Z,22.45
2022-09-04T14:10:36.305Z,22.50
2022-09-04T14:13:35.045Z,22.59
2022-09-04T14:16:16.276Z,22.68
2022-09-04T14:19:15.734Z,22.72
2022-09-04T14:22:12.375Z,22.75
2022-09-04T14:24:56.192Z,22.77
2022-09-04T14:27:39.693Z,22.77
2022-09-04T14:30:24.346Z,22.78
2022-09-04T14:33:19.319Z,22.81
2022-09-04T14:36:05.941Z,22.90
2022-09-04T14:38:43.268Z,23.03
2022-09-04T14:41:34.041Z,23.13
2022-09-04T14:44:25.409Z,23.22
2022-09-04T14:47:00.699Z,23.30
2022-09-04T14:49:31.953Z,23.38
2022-09-04T14:52:21.774Z,23.44
2022-09-04T14:54:58.538Z,23.61
2022-09-04T14:57:42.514Z,23.81
2022-09-04T15:00:19.338Z,23.87
2022-09-04T15:03:15.866Z,24.13
2022-09-04T15:05:56.729Z,24.81
2022-09-04T15:08:28.120Z,27.09
2022-09-04T15:11:33.409Z,29.54
2022-09-04T15:14:23.871Z,31.80
2022-09-04T15:16:57.321Z,33.65
2022-09-04T15:19:46.597Z,34.89
2022-09-04T15:22:45.672Z,35.86
2022-09-04T15:25:58.253Z,36.17
2022-09-04T15:28:49.945Z,35.67
2022-09-04T15:31:35.683Z,34.29
2022-09-04T15:34:10.382Z,33.14
2022-09-04T15:36:45.639Z,31.89
2022-09-04T15:39:28.552Z,30.66
2022-09-04T15:41:57.325Z,29.58
2022-09-04T15:44:52.799Z,28.67
2022-09-04T15:47:36.084Z,27.68
2022-09-04T15:50:36.518Z,26.90
2022-09-04T15:53:26.418Z,26.13
2022-09-04T15:56:11.387Z,25.48
2022-09-04T15:59:01.752Z,24.90
2022-09-04T16:01:56.611Z,24.31
2022-09-04T16:04:26.724Z,23.83
2022-09-04T16:07:20.595Z,23.45
2022-09-04T16:10:21.697Z,23.02
2022-09-04T16:12:57.436Z,22.62
2022-09-04T16:15:31.768Z,22.31
2022-09-04T16:18:13.765Z,21.97
2022-09-04T16:20:59.478Z,21.66
2022-09-04T16:23:43.473Z,21.43
2022-09-04T16:26:17.310Z,21.22
2022-09-04T16:29:03.678Z,21.00
2022-09-04T16:31:36.683Z,20.78
2022-09-04T16:34:37.452Z,20.62
2022-09-04T16:37:21.209Z,20.43
2022-09-04T16:40:14.834Z,20.31
2022-09-04T16:43:20.355Z,20.15
2022-09-04T16:46:02.160Z,19.98
2022-09-04T16:48:47.280Z,19.81
2022-09-04T16:51:40.362Z,19.66
2022-09-04T16:54:13.252Z,19.50
2022-09-04T16:56:50.143Z,19.33
2022-09-04T16:59:42.063Z,19.24
2022-09-04T17:02:21.861Z,19.11
2022-09-04T17:05:35.564Z,19.02
2022-09-04T17:08:28.208Z,18.80
2022-09-04T17:11:11.114Z,18.53
2022-09-04T17:14:09.220Z,18.30
2022-09-04T17:16:53.973Z,18.11
2022-09-04T17:19:22.175Z,17.98
2022-09-04T17:29:02.430Z,17.84
2022-09-04T17:29:08.973Z,17.58
2022-09-04T17:29:14.169Z,17.72
2022-09-04T17:31:28.632Z,17.40
2022-09-04T17:40:37.721Z,17.17
2022-09-04T17:40:42.888Z,17.28
2022-09-04T17:44:04.076Z,16.88
2022-09-04T17:46:56.017Z,16.73
2022-09-04T17:49:34.734Z,16.62
2022-09-04T17:52:08.906Z,16.50
2022-09-04T17:54:49.057Z,16.35
2022-09-04T17:58:10.639Z,16.18
2022-09-04T18:01:33.864Z,16.02
2022-09-04T18:04:27.189Z,15.90
2022-09-04T18:07:21.857Z,15.81
2022-09-04T18:10:08.970Z,15.70
2022-09-04T18:13:36.271Z,15.60
2022-09-04T18:16:36.356Z,15.52
2022-09-04T18:19:31.333Z,15.50
2022-09-04T18:22:33.482Z,15.47
2022-09-04T18:25:27.497Z,15.32
2022-09-04T18:28:19.001Z,15.17
2022-09-04T18:37:06.289Z,15.03
2022-09-04T18:37:26.211Z,15.01
2022-09-04T18:38:41.187Z,15.02
2022-09-04T18:48:54.957Z,14.99
2022-09-04T18:50:30.122Z,14.72
2022-09-04T18:50:37.889Z,14.89
2022-09-04T18:51:05.797Z,14.74
2022-09-04T18:53:34.540Z,14.75
2022-09-04T18:56:20.904Z,14.71
2022-09-04T18:59:16.988Z,14.67
2022-09-04T19:02:04.347Z,14.63
2022-09-04T19:05:02.407Z,14.69
2022-09-04T19:07:37.208Z,14.75
2022-09-04T19:10:40.810Z,14.75
2022-09-04T19:13:30.917Z,14.72
2022-09-04T19:16:23.381Z,14.74
2022-09-04T19:19:17.255Z,14.68
2022-09-04T19:21:58.255Z,14.66
2022-09-04T19:24:42.154Z,14.66
2022-09-04T19:27:34.711Z,14.68
2022-09-04T19:30:39.770Z,14.67
2022-09-04T19:33:28.563Z,14.67
2022-09-04T19:36:08.333Z,14.64
2022-09-04T19:45:57.650Z,14.57
2022-09-04T19:45:59.229Z,14.57
2022-09-04T19:46:19.715Z,14.56
2022-09-04T19:48:20.515Z,14.57
2022-09-04T19:53:30.487Z,14.55
2022-09-04T19:54:03.995Z,14.51
2022-09-04T19:57:31.001Z,14.48
2022-09-04T20:05:15.715Z,14.38
2022-09-04T20:07:55.486Z,14.37
2022-09-04T20:10:52.603Z,14.36
2022-09-04T20:14:13.974Z,14.31
2022-09-04T20:16:55.306Z,14.21
2022-09-04T20:19:39.002Z,14.17
2022-09-04T20:23:34.518Z,14.07
2022-09-04T20:26:23.045Z,13.99
2022-09-04T20:29:13.918Z,13.93
2022-09-04T20:32:09.898Z,13.75
2022-09-04T20:34:49.721Z,13.56
2022-09-04T20:38:39.472Z,13.43
2022-09-04T20:42:56.537Z,13.23
2022-09-04T20:51:45.314Z,12.99
2022-09-04T21:12:21.227Z,12.15
2022-09-04T21:27:02.993Z,11.92
2022-09-04T21:28:02.262Z,11.72
2022-09-04T21:32:48.466Z,11.63
2022-09-04T21:41:23.563Z,11.57
2022-09-04T21:43:24.774Z,11.57
2022-09-04T21:44:37.629Z,11.61
2022-09-04T21:48:32.376Z,11.57
2022-09-04T21:56:53.426Z,11.57
2022-09-04T21:57:50.452Z,11.58
2022-09-04T22:04:24.439Z,11.25
2022-09-04T22:13:38.857Z,11.24
2022-09-04T22:14:08.404Z,11.18
2022-09-04T22:57:56.005Z,11.48
2022-09-04T23:01:11.531Z,11.51
2022-09-04T23:04:05.923Z,11.45
2022-09-04T23:08:22.958Z,11.43
2022-09-04T23:13:51.849Z,11.35
2022-09-04T23:14:03.083Z,11.43
2022-09-04T23:16:45.311Z,11.35
2022-09-04T23:24:42.477Z,11.39
2022-09-04T23:26:45.336Z,11.32
2022-09-04T23:26:49.802Z,11.26
2022-09-04T23:29:26.791Z,11.24
2022-09-04T23:32:30.941Z,11.27
2022-09-04T23:35:58.408Z,11.30
2022-09-04T23:39:32.750Z,11.21
2022-09-04T23:42:58.470Z,11.08
2022-09-04T23:46:01.475Z,10.93
2022-09-04T23:49:29.272Z,10.86
2022-09-04T23:52:47.761Z,10.87
2022-09-04T23:56:13.386Z,10.72
2022-09-04T23:59:40.187Z,10.64
